createdAt,value
2016-08-29T00:00:38.251Z,1152.96
2016-08-29T00:01:38.254Z,1152.93
2016-08-29T00:02:38.250Z,1152.92
2016-08-29T00:03:38.261Z,1152.81
2016-08-29T00:04:38.255Z,1152.67
2016-08-29T00:05:38.264Z,1152.62
2016-08-29T00:06:38.254Z,1152.5
2016-08-29T00:07:38.248Z,1152.34
2016-08-29T00:08:38.252Z,1152.23
2016-08-29T00:09:38.262Z,1152.13
2016-08-29T00:10:38.249Z,1152.04
2016-08-29T00:11:38.257Z,1151.96
2016-08-29T00:12:38.253Z,1151.9
2016-08-29T00:13:38.409Z,1151.87
2016-08-29T00:14:38.279Z,1151.71
2016-08-29T00:15:38.270Z,1151.74
2016-08-29T00:16:38.264Z,1151.75
2016-08-29T00:17:38.271Z,1151.65
2016-08-29T00:18:38.275Z,1151.45
2016-08-29T00:19:38.281Z,1151.53
2016-08-29T00:20:38.273Z,1151.44
2016-08-29T00:21:38.267Z,1151.44
2016-08-29T00:22:38.290Z,1151.47
2016-08-29T00:23:38.269Z,1151.34
2016-08-29T00:24:38.281Z,1151.27
2016-08-29T00:25:38.283Z,1151.35
2016-08-29T00:26:38.269Z,1151.27
2016-08-29T00:27:38.283Z,1151.1
2016-08-29T00:28:38.272Z,1151.12
2016-08-29T00:29:38.272Z,1151.11
2016-08-29T00:30:38.277Z,1151.11
2016-08-29T00:31:38.296Z,1151.08
2016-08-29T00:32:38.288Z,1151.11
2016-08-29T00:33:38.288Z,1151.12
2016-08-29T00:34:38.288Z,1151.17
2016-08-29T00:35:38.275Z,1151.25
2016-08-29T00:36:38.284Z,1151.18
2016-08-29T00:37:38.276Z,1151.37
2016-08-29T00:38:38.296Z,1151.3
2016-08-29T00:39:38.281Z,1151.34
2016-08-29T00:40:38.283Z,1151.36
2016-08-29T00:41:38.289Z,1151.33
2016-08-29T00:42:38.292Z,1151.36
2016-08-29T00:43:38.283Z,1151.31
2016-08-29T00:44:38.295Z,1151.33
2016-08-29T00:45:38.301Z,1151.29
2016-08-29T00:46:38.294Z,1151.34
2016-08-29T00:47:38.459Z,1151.28
2016-08-29T00:48:38.300Z,1151.18
2016-08-29T00:49:38.301Z,1151.26
2016-08-29T00:50:38.302Z,1151.26
2016-08-29T00:51:38.298Z,1151.31
2016-08-29T00:52:38.305Z,1151.15
2016-08-29T00:53:38.298Z,1151.24
2016-08-29T00:54:38.302Z,1151.12
2016-08-29T00:55:38.295Z,1151.19
2016-08-29T00:56:38.300Z,1151.06
2016-08-29T00:57:38.313Z,1151
2016-08-29T00:58:39.094Z,1151.04
2016-08-29T00:59:38.308Z,1151.01
2016-08-29T01:00:38.299Z,1150.9
2016-08-29T01:01:38.320Z,1150.86
2016-08-29T01:02:38.298Z,1150.64
2016-08-29T01:03:38.305Z,1150.47
2016-08-29T01:04:38.312Z,1150.48
2016-08-29T01:05:38.316Z,1150.32
2016-08-29T01:06:38.309Z,1150.06
2016-08-29T01:07:38.299Z,1150.01
2016-08-29T01:08:38.311Z,1149.87
2016-08-29T01:09:38.314Z,1149.66
2016-08-29T01:10:38.314Z,1149.77
2016-08-29T01:11:38.314Z,1149.54
2016-08-29T01:12:38.314Z,1149.55
2016-08-29T01:13:38.527Z,1149.48
2016-08-29T01:14:38.314Z,1149.44
2016-08-29T01:15:38.314Z,1149.29
2016-08-29T01:16:38.317Z,1149.3
2016-08-29T01:17:38.312Z,1149.13
2016-08-29T01:18:38.313Z,1149.03
2016-08-29T01:19:38.321Z,1149
2016-08-29T01:20:38.328Z,1148.78
2016-08-29T01:21:38.320Z,1148.56
2016-08-29T01:22:38.324Z,1148.36
2016-08-29T01:23:38.324Z,1148.29
2016-08-29T01:24:38.349Z,1148.08
2016-08-29T01:25:38.331Z,1147.98
2016-08-29T01:26:38.327Z,1147.92
2016-08-29T01:27:38.328Z,1147.82
2016-08-29T01:28:38.408Z,1147.57
2016-08-29T01:29:38.326Z,1147.36
2016-08-29T01:30:38.333Z,1147.14
2016-08-29T01:31:38.345Z,1147.18
2016-08-29T01:32:38.334Z,1147.02
2016-08-29T01:33:38.332Z,1146.73
2016-08-29T01:34:38.345Z,1146.68
2016-08-29T01:35:38.346Z,1146.45
2016-08-29T01:36:38.331Z,1146.32
2016-08-29T01:37:38.338Z,1146.19
2016-08-29T01:38:38.350Z,1146.03
2016-08-29T01:39:38.345Z,1145.95
2016-08-29T01:40:38.345Z,1146.01
2016-08-29T01:41:38.345Z,1145.92
2016-08-29T01:42:38.337Z,1145.85
2016-08-29T01:43:38.459Z,1145.7
2016-08-29T01:44:38.376Z,1145.85
2016-08-29T01:45:38.346Z,1145.79
2016-08-29T01:46:38.347Z,1145.78
2016-08-29T01:47:38.347Z,1145.76
2016-08-29T01:48:38.343Z,1145.98
2016-08-29T01:49:38.349Z,1146.08
2016-08-29T01:50:38.347Z,1146.05
2016-08-29T01:51:38.350Z,1146.09
2016-08-29T01:52:38.353Z,1146.05
2016-08-29T01:53:38.363Z,1146.04
2016-08-29T01:54:38.358Z,1145.95
2016-08-29T01:55:38.359Z,1145.95
2016-08-29T01:56:38.349Z,1146.02
2016-08-29T01:57:38.366Z,1145.97
2016-08-29T01:58:38.931Z,1146.03
2016-08-29T01:59:38.365Z,1146.08
2016-08-29T02:00:38.362Z,1146.06
2016-08-29T02:01:38.359Z,1145.82
2016-08-29T02:02:38.368Z,1145.93
2016-08-29T02:03:38.366Z,1145.85
2016-08-29T02:04:38.368Z,1145.95
2016-08-29T02:05:38.360Z,1145.84
2016-08-29T02:06:38.359Z,1145.77
2016-08-29T02:07:38.360Z,1145.65
2016-08-29T02:08:38.360Z,1145.59
2016-08-29T02:09:38.368Z,1145.6
2016-08-29T02:10:38.362Z,1145.67
2016-08-29T02:11:38.377Z,1145.69
2016-08-29T02:12:38.376Z,1145.67
2016-08-29T02:13:38.502Z,1145.76
2016-08-29T02:14:38.375Z,1145.89
2016-08-29T02:15:38.362Z,1145.94
2016-08-29T02:16:38.369Z,1145.82
2016-08-29T02:17:38.384Z,1146.03
2016-08-29T02:18:38.372Z,1146.12
2016-08-29T02:19:38.382Z,1146.42
2016-08-29T02:20:38.383Z,1146.45
2016-08-29T02:21:38.379Z,1146.72
2016-08-29T02:22:38.384Z,1146.89
2016-08-29T02:23:38.378Z,1147.37
2016-08-29T02:24:38.386Z,1147.53
2016-08-29T02:25:38.399Z,1147.95
2016-08-29T02:26:38.377Z,1148.34
2016-08-29T02:27:38.392Z,1148.69
2016-08-29T02:28:38.481Z,1148.99
2016-08-29T02:29:38.383Z,1149.33
2016-08-29T02:30:38.385Z,1149.67
2016-08-29T02:31:38.377Z,1149.88
2016-08-29T02:32:38.385Z,1150.02
2016-08-29T02:33:38.379Z,1150.03
2016-08-29T02:34:38.395Z,1150.17
2016-08-29T02:35:38.388Z,1150.21
2016-08-29T02:36:38.381Z,1150.31
2016-08-29T02:37:38.388Z,1150.35
2016-08-29T02:38:38.402Z,1150.29
2016-08-29T02:39:38.398Z,1150.16
2016-08-29T02:40:38.396Z,1150.05
2016-08-29T02:41:38.395Z,1150.08
2016-08-29T02:42:38.393Z,1150.01
2016-08-29T02:43:38.521Z,1150.03
2016-08-29T02:44:38.392Z,1150.07
2016-08-29T02:45:38.397Z,1150.07
2016-08-29T02:46:38.391Z,1149.99
2016-08-29T02:47:38.393Z,1149.92
2016-08-29T02:48:38.410Z,1149.98
2016-08-29T02:49:38.407Z,1149.95
2016-08-29T02:50:38.400Z,1149.85
2016-08-29T02:51:38.409Z,1149.86
2016-08-29T02:52:38.411Z,1149.78
2016-08-29T02:53:38.409Z,1149.75
2016-08-29T02:54:38.424Z,1149.79
2016-08-29T02:55:38.414Z,1149.6
2016-08-29T02:56:38.417Z,1149.62
2016-08-29T02:57:38.410Z,1149.62
2016-08-29T02:58:38.486Z,1149.57
2016-08-29T02:59:38.439Z,1149.58
2016-08-29T03:00:38.408Z,1149.7
2016-08-29T03:01:38.419Z,1149.72
2016-08-29T03:02:38.411Z,1149.86
2016-08-29T03:03:38.426Z,1149.9
2016-08-29T03:04:38.410Z,1149.94
2016-08-29T03:05:38.424Z,1149.87
2016-08-29T03:06:38.420Z,1150.08
2016-08-29T03:07:38.426Z,1150.14
2016-08-29T03:08:38.417Z,1150.35
2016-08-29T03:09:38.411Z,1150.4
2016-08-29T03:10:38.426Z,1150.44
2016-08-29T03:11:38.425Z,1150.52
2016-08-29T03:12:38.422Z,1150.6
2016-08-29T03:13:38.508Z,1150.79
2016-08-29T03:14:38.431Z,1150.91
2016-08-29T03:15:38.431Z,1151.31
2016-08-29T03:16:38.425Z,1151.45
2016-08-29T03:17:38.422Z,1151.49
2016-08-29T03:18:38.425Z,1151.81
2016-08-29T03:19:38.430Z,1152.01
2016-08-29T03:20:38.437Z,1152.27
2016-08-29T03:21:38.434Z,1152.35
2016-08-29T03:22:38.426Z,1152.58
2016-08-29T03:23:38.426Z,1152.84
2016-08-29T03:24:38.433Z,1153.07
2016-08-29T03:25:38.421Z,1153.39
2016-08-29T03:26:38.444Z,1153.58
2016-08-29T03:27:38.472Z,1153.82
2016-08-29T03:28:38.533Z,1154.09
2016-08-29T03:29:38.446Z,1154.29
2016-08-29T03:30:38.437Z,1154.36
2016-08-29T03:31:38.443Z,1154.51
2016-08-29T03:32:38.449Z,1154.84
2016-08-29T03:33:38.470Z,1154.88
2016-08-29T03:34:38.445Z,1155.04
2016-08-29T03:35:38.444Z,1155.23
2016-08-29T03:36:38.442Z,1155.33
2016-08-29T03:37:38.446Z,1155.46
2016-08-29T03:38:38.451Z,1155.65
2016-08-29T03:39:38.449Z,1155.69
2016-08-29T03:40:38.466Z,1155.91
2016-08-29T03:41:38.455Z,1156
2016-08-29T03:42:38.451Z,1156.12
2016-08-29T03:43:38.515Z,1156.23
2016-08-29T03:44:38.467Z,1156.33
2016-08-29T03:45:38.462Z,1156.43
2016-08-29T03:46:38.460Z,1156.52
2016-08-29T03:47:38.490Z,1156.68
2016-08-29T03:48:38.458Z,1156.77
2016-08-29T03:49:38.461Z,1156.98
2016-08-29T03:50:38.455Z,1156.98
2016-08-29T03:51:38.461Z,1157.12
2016-08-29T03:52:38.458Z,1157.2
2016-08-29T03:53:38.460Z,1157.31
2016-08-29T03:54:38.465Z,1157.36
2016-08-29T03:55:38.458Z,1157.48
2016-08-29T03:56:38.464Z,1157.5
2016-08-29T03:57:38.463Z,1157.58
2016-08-29T03:58:38.475Z,1157.75
2016-08-29T03:59:38.461Z,1157.72
2016-08-29T04:00:38.463Z,1157.8
2016-08-29T04:01:38.473Z,1157.89
2016-08-29T04:02:38.461Z,1157.9
2016-08-29T04:03:38.470Z,1157.96
2016-08-29T04:04:38.478Z,1157.93
2016-08-29T04:05:38.472Z,1158.02
2016-08-29T04:06:38.477Z,1158.06
2016-08-29T04:07:38.470Z,1158.09
2016-08-29T04:08:38.475Z,1158.05
2016-08-29T04:09:38.476Z,1158.1
2016-08-29T04:10:38.475Z,1158.13
2016-08-29T04:11:38.483Z,1158.13
2016-08-29T04:12:38.474Z,1158.15
2016-08-29T04:13:38.550Z,1158.17
2016-08-29T04:14:38.488Z,1158.18
2016-08-29T04:15:38.475Z,1158.23
2016-08-29T04:16:38.485Z,1158.23
2016-08-29T04:17:38.482Z,1158.23
2016-08-29T04:18:38.495Z,1158.23
2016-08-29T04:19:38.491Z,1158.3
2016-08-29T04:20:38.480Z,1158.3
2016-08-29T04:21:38.491Z,1158.3
2016-08-29T04:22:38.492Z,1158.27
2016-08-29T04:23:38.484Z,1158.3
2016-08-29T04:24:38.490Z,1158.22
2016-08-29T04:25:38.497Z,1158.25
2016-08-29T04:26:38.489Z,1158.24
2016-08-29T04:27:38.495Z,1158.22
2016-08-29T04:28:38.489Z,1158.26
2016-08-29T04:29:38.495Z,1158.29
2016-08-29T04:30:38.507Z,1158.29
2016-08-29T04:31:38.490Z,1158.32
2016-08-29T04:32:38.497Z,1158.35
2016-08-29T04:33:38.507Z,1158.41
2016-08-29T04:34:38.506Z,1158.4
2016-08-29T04:35:38.945Z,1158.4
2016-08-29T04:36:38.507Z,1158.48
2016-08-29T04:37:38.506Z,1158.52
2016-08-29T04:38:38.509Z,1158.53
2016-08-29T04:39:38.523Z,1158.59
2016-08-29T04:40:38.508Z,1158.55
2016-08-29T04:41:38.508Z,1158.57
2016-08-29T04:42:38.512Z,1158.59
2016-08-29T04:43:38.498Z,1158.66
2016-08-29T04:44:38.515Z,1158.65
2016-08-29T04:45:38.510Z,1158.7
2016-08-29T04:46:38.521Z,1158.72
2016-08-29T04:47:38.509Z,1158.78
2016-08-29T04:48:38.520Z,1158.84
2016-08-29T04:49:38.525Z,1158.91
2016-08-29T04:50:38.520Z,1158.9
2016-08-29T04:51:38.521Z,1158.91
2016-08-29T04:52:38.516Z,1158.95
2016-08-29T04:53:38.523Z,1158.91
2016-08-29T04:54:38.519Z,1158.92
2016-08-29T04:55:38.522Z,1158.89
2016-08-29T04:56:38.513Z,1158.8
2016-08-29T04:57:38.527Z,1158.78
2016-08-29T04:58:38.526Z,1158.73
2016-08-29T04:59:38.523Z,1158.72
2016-08-29T05:00:38.520Z,1158.76
2016-08-29T05:01:38.529Z,1158.6
2016-08-29T05:02:38.522Z,1158.6
2016-08-29T05:03:38.529Z,1158.63
2016-08-29T05:04:38.522Z,1158.59
2016-08-29T05:05:38.526Z,1158.6
2016-08-29T05:06:38.527Z,1158.64
2016-08-29T05:07:38.530Z,1158.61
2016-08-29T05:08:38.530Z,1158.55
2016-08-29T05:09:38.528Z,1158.57
2016-08-29T05:10:38.534Z,1158.6
2016-08-29T05:11:38.538Z,1158.55
2016-08-29T05:12:38.544Z,1158.6
2016-08-29T05:13:38.535Z,1158.6
2016-08-29T05:14:38.526Z,1158.58
2016-08-29T05:15:38.539Z,1158.58
2016-08-29T05:16:38.542Z,1158.55
2016-08-29T05:17:38.542Z,1158.61
2016-08-29T05:18:38.540Z,1158.6
2016-08-29T05:19:38.541Z,1158.69
2016-08-29T05:20:38.540Z,1158.61
2016-08-29T05:21:38.545Z,1158.67
2016-08-29T05:22:38.545Z,1158.54
2016-08-29T05:23:38.539Z,1158.67
2016-08-29T05:24:38.556Z,1158.62
2016-08-29T05:25:38.551Z,1158.64
2016-08-29T05:26:38.556Z,1158.66
2016-08-29T05:27:38.616Z,1158.63
2016-08-29T05:28:38.586Z,1158.7
2016-08-29T05:29:38.566Z,1158.71
2016-08-29T05:30:38.555Z,1158.73
2016-08-29T05:31:38.570Z,1158.68
2016-08-29T05:32:38.560Z,1158.78
2016-08-29T05:33:38.584Z,1158.76
2016-08-29T05:34:38.555Z,1158.72
2016-08-29T05:35:38.555Z,1158.69
2016-08-29T05:36:38.566Z,1158.7
2016-08-29T05:37:38.585Z,1158.75
2016-08-29T05:38:38.558Z,1158.73
2016-08-29T05:39:38.571Z,1158.82
2016-08-29T05:40:38.561Z,1158.88
2016-08-29T05:41:38.560Z,1158.9
2016-08-29T05:42:38.570Z,1159.02
2016-08-29T05:43:38.569Z,1158.97
2016-08-29T05:44:38.559Z,1158.97
2016-08-29T05:45:38.565Z,1159.03
2016-08-29T05:46:38.570Z,1159.01
2016-08-29T05:47:38.563Z,1159
2016-08-29T05:48:38.569Z,1159.06
2016-08-29T05:49:38.576Z,1159.18
2016-08-29T05:50:38.565Z,1159.36
2016-08-29T05:51:38.572Z,1159.54
2016-08-29T05:52:38.573Z,1159.67
2016-08-29T05:53:38.592Z,1159.75
2016-08-29T05:54:38.584Z,1159.74
2016-08-29T05:55:38.592Z,1159.75
2016-08-29T05:56:38.575Z,1159.85
2016-08-29T05:57:38.617Z,1159.88
2016-08-29T05:58:38.578Z,1159.97
2016-08-29T05:59:38.587Z,1160.04
2016-08-29T06:00:38.590Z,1160.03
2016-08-29T06:01:38.583Z,1160.03
2016-08-29T06:02:38.585Z,1160.16
2016-08-29T06:03:38.592Z,1160.19
2016-08-29T06:04:38.582Z,1160.2
2016-08-29T06:05:38.591Z,1160.23
2016-08-29T06:06:38.589Z,1160.32
2016-08-29T06:07:38.582Z,1160.31
2016-08-29T06:08:38.586Z,1160.31
2016-08-29T06:09:38.578Z,1160.37
2016-08-29T06:10:38.585Z,1160.36
2016-08-29T06:11:38.592Z,1160.37
2016-08-29T06:12:39.456Z,1160.35
2016-08-29T06:13:38.585Z,1160.35
2016-08-29T06:14:38.592Z,1160.45
2016-08-29T06:15:38.588Z,1160.44
2016-08-29T06:16:38.653Z,1160.41
2016-08-29T06:17:38.609Z,1160.46
2016-08-29T06:18:38.588Z,1160.44
2016-08-29T06:19:39.372Z,1160.48
2016-08-29T06:20:38.601Z,1160.5
2016-08-29T06:21:39.146Z,1160.5
2016-08-29T06:22:38.602Z,1160.5
2016-08-29T06:23:38.783Z,1160.51
2016-08-29T06:24:38.600Z,1160.56
2016-08-29T06:25:38.609Z,1160.55
2016-08-29T06:26:38.603Z,1160.52
2016-08-29T06:27:38.675Z,1160.51
2016-08-29T06:28:38.603Z,1160.45
2016-08-29T06:29:38.618Z,1160.35
2016-08-29T06:30:38.616Z,1160.23
2016-08-29T06:31:38.814Z,1160.15
2016-08-29T06:32:38.923Z,1160.02
2016-08-29T06:33:39.049Z,1159.89
2016-08-29T06:34:39.260Z,1159.9
2016-08-29T06:35:38.626Z,1159.91
2016-08-29T06:36:38.977Z,1159.93
2016-08-29T06:37:38.616Z,1159.81
2016-08-29T06:38:38.608Z,1159.76
2016-08-29T06:39:38.620Z,1159.52
2016-08-29T06:40:38.750Z,1159.13
2016-08-29T06:41:38.999Z,1158.64
2016-08-29T06:42:38.639Z,1158.3
2016-08-29T06:43:38.627Z,1157.88
2016-08-29T06:44:38.623Z,1157.42
2016-08-29T06:45:38.616Z,1157.09
2016-08-29T06:46:38.621Z,1156.89
2016-08-29T06:47:38.635Z,1156.81
2016-08-29T06:48:38.618Z,1156.7
2016-08-29T06:49:38.627Z,1156.5
2016-08-29T06:50:38.618Z,1156.15
2016-08-29T06:51:38.625Z,1155.61
2016-08-29T06:52:38.641Z,1154.88
2016-08-29T06:53:38.640Z,1154.35
2016-08-29T06:54:38.709Z,1154.09
2016-08-29T06:55:38.636Z,1153.8
2016-08-29T06:56:38.635Z,1153.59
2016-08-29T06:57:39.176Z,1153.63
2016-08-29T06:58:38.633Z,1153.62
2016-08-29T06:59:38.636Z,1153.46
2016-08-29T07:00:38.640Z,1153.33
2016-08-29T07:01:38.636Z,1153.02
2016-08-29T07:02:38.640Z,1152.73
2016-08-29T07:03:38.634Z,1152.36
2016-08-29T07:04:38.654Z,1151.87
2016-08-29T07:05:38.636Z,1151.29
2016-08-29T07:06:38.646Z,1150.45
2016-08-29T07:07:38.636Z,1149.35
2016-08-29T07:08:38.652Z,1148.63
2016-08-29T07:09:38.646Z,1147.59
2016-08-29T07:10:38.800Z,1146.27
2016-08-29T07:11:38.642Z,1144.59
2016-08-29T07:12:38.650Z,1142.76
2016-08-29T07:13:38.756Z,1141.63
2016-08-29T07:14:38.652Z,1141.38
2016-08-29T07:15:38.652Z,1141.29
2016-08-29T07:16:38.651Z,1141.31
2016-08-29T07:17:38.655Z,1141.47
2016-08-29T07:18:38.655Z,1141.41
2016-08-29T07:19:38.652Z,1141.23
2016-08-29T07:20:38.658Z,1141.08
2016-08-29T07:21:38.659Z,1140.98
2016-08-29T07:22:38.658Z,1141.05
2016-08-29T07:23:38.649Z,1141.26
2016-08-29T07:24:38.699Z,1141.63
2016-08-29T07:25:38.700Z,1142.19
2016-08-29T07:26:38.684Z,1142.56
2016-08-29T07:27:38.686Z,1142.97
2016-08-29T07:28:38.668Z,1142.86
2016-08-29T07:29:38.677Z,1142.38
2016-08-29T07:30:38.702Z,1141.04
2016-08-29T07:31:38.663Z,1139.28
2016-08-29T07:32:38.687Z,1137.95
2016-08-29T07:33:38.698Z,1136.44
2016-08-29T07:34:38.671Z,1132.96
2016-08-29T07:35:38.681Z,1129.35
2016-08-29T07:36:38.689Z,1126.96
2016-08-29T07:37:38.686Z,1125.48
2016-08-29T07:38:38.682Z,1123.06
2016-08-29T07:39:38.677Z,1120.79
2016-08-29T07:40:38.698Z,1117.4
2016-08-29T07:41:38.685Z,1113.92
2016-08-29T07:42:38.758Z,1112.78
2016-08-29T07:43:38.698Z,1112.62
2016-08-29T07:44:38.693Z,1112.44
2016-08-29T07:45:38.686Z,1111.73
2016-08-29T07:46:38.692Z,1111.41
2016-08-29T07:47:38.716Z,1111.36
2016-08-29T07:48:38.684Z,1111.24
2016-08-29T07:49:38.687Z,1111.6
2016-08-29T07:50:39.298Z,1111.29
2016-08-29T07:51:38.685Z,1108.66
2016-08-29T07:52:39.208Z,1105.78
2016-08-29T07:53:38.682Z,1105.01
2016-08-29T07:54:38.693Z,1104.97
2016-08-29T07:55:38.686Z,1104.37
2016-08-29T07:56:38.686Z,1103.53
2016-08-29T07:57:38.699Z,1104.47
2016-08-29T07:58:38.714Z,1106.05
2016-08-29T07:59:38.700Z,1107.8
2016-08-29T08:00:38.705Z,1109.88
2016-08-29T08:01:38.706Z,1110.4
2016-08-29T08:02:38.697Z,1109.45
2016-08-29T08:03:38.698Z,1107.67
2016-08-29T08:04:38.701Z,1106.03
2016-08-29T08:05:38.701Z,1103.91
2016-08-29T08:06:38.692Z,1102.28
2016-08-29T08:07:38.699Z,1101.89
2016-08-29T08:08:38.707Z,1102.86
2016-08-29T08:09:38.706Z,1104.84
2016-08-29T08:10:38.723Z,1107.2
2016-08-29T08:11:38.701Z,1109.36
2016-08-29T08:12:38.733Z,1111.58
2016-08-29T08:13:38.727Z,1113.19
2016-08-29T08:14:38.730Z,1114.19
2016-08-29T08:15:38.727Z,1114.88
2016-08-29T08:16:38.718Z,1116.08
2016-08-29T08:17:38.716Z,1117.13
2016-08-29T08:18:38.716Z,1117.97
2016-08-29T08:19:38.713Z,1118.44
2016-08-29T08:20:38.715Z,1118.25
2016-08-29T08:21:38.710Z,1117.07
2016-08-29T08:22:38.714Z,1114.14
2016-08-29T08:23:38.731Z,1110.61
2016-08-29T08:24:38.729Z,1105.98
2016-08-29T08:25:38.745Z,1100.83
2016-08-29T08:26:38.713Z,1094.81
2016-08-29T08:27:38.733Z,1088.96
2016-08-29T08:28:38.735Z,1084.37
2016-08-29T08:29:38.728Z,1079.61
2016-08-29T08:30:38.731Z,1075.69
2016-08-29T08:31:38.722Z,1071.12
2016-08-29T08:32:38.731Z,1067.04
2016-08-29T08:33:38.743Z,1063.92
2016-08-29T08:34:38.712Z,1060.41
2016-08-29T08:35:38.731Z,1058.26
2016-08-29T08:36:38.732Z,1056.7
2016-08-29T08:37:38.730Z,1053.79
2016-08-29T08:38:38.738Z,1049.04
2016-08-29T08:39:38.729Z,1043.09
2016-08-29T08:40:38.731Z,1035.73
2016-08-29T08:41:38.732Z,1027.75
2016-08-29T08:42:38.750Z,1021.27
2016-08-29T08:43:38.743Z,1014.36
2016-08-29T08:44:38.736Z,1008.44
2016-08-29T08:45:38.745Z,1004.75
2016-08-29T08:46:38.747Z,1005.17
2016-08-29T08:47:38.750Z,1009.81
2016-08-29T08:48:38.777Z,1017.86
2016-08-29T08:49:38.752Z,1027.84
2016-08-29T08:50:38.742Z,1037.1
2016-08-29T08:51:38.733Z,1044.94
2016-08-29T08:52:38.746Z,1051.08
2016-08-29T08:53:38.761Z,1056.99
2016-08-29T08:54:38.744Z,1061.92
2016-08-29T08:55:38.756Z,1067.57
2016-08-29T08:56:38.755Z,1072.25
2016-08-29T08:57:38.774Z,1075.96
2016-08-29T08:58:38.757Z,1078.49
2016-08-29T08:59:38.759Z,1080.95
2016-08-29T09:00:38.751Z,1083.39
2016-08-29T09:01:38.747Z,1085.7
2016-08-29T09:02:38.764Z,1087.62
2016-08-29T09:03:38.761Z,1088.44
2016-08-29T09:04:38.764Z,1090.01
2016-08-29T09:05:38.762Z,1092.71
2016-08-29T09:06:38.767Z,1095.66
2016-08-29T09:07:38.758Z,1099.4
2016-08-29T09:08:38.777Z,1103.54
2016-08-29T09:09:38.762Z,1106.29
2016-08-29T09:10:38.762Z,1108.56
2016-08-29T09:11:38.770Z,1109.99
2016-08-29T09:12:38.762Z,1111.64
2016-08-29T09:13:38.774Z,1112.8
2016-08-29T09:14:38.761Z,1113.48
2016-08-29T09:15:38.782Z,1114.32
2016-08-29T09:16:38.853Z,1114.33
2016-08-29T09:17:38.768Z,1114.36
2016-08-29T09:18:38.776Z,1114.26
2016-08-29T09:19:38.778Z,1114.23
2016-08-29T09:20:38.782Z,1114.89
2016-08-29T09:21:38.778Z,1114.95
2016-08-29T09:22:38.779Z,1115.25
2016-08-29T09:23:38.778Z,1115.12
2016-08-29T09:24:38.777Z,1114.3
2016-08-29T09:25:38.796Z,1112.69
2016-08-29T09:26:38.777Z,1110.98
2016-08-29T09:27:38.821Z,1109.11
2016-08-29T09:28:38.775Z,1108.05
2016-08-29T09:29:38.794Z,1106.61
2016-08-29T09:30:38.791Z,1104.83
2016-08-29T09:31:38.793Z,1103.62
2016-08-29T09:32:38.814Z,1102.56
2016-08-29T09:33:38.824Z,1102.12
2016-08-29T09:34:38.792Z,1102.26
2016-08-29T09:35:38.793Z,1101.94
2016-08-29T09:36:38.798Z,1100.96
2016-08-29T09:37:38.786Z,1100.28
2016-08-29T09:38:38.808Z,1099.88
2016-08-29T09:39:38.800Z,1099.22
2016-08-29T09:40:38.807Z,1098.66
2016-08-29T09:41:38.806Z,1097.55
2016-08-29T09:42:38.793Z,1095.27
2016-08-29T09:43:38.814Z,1092.43
2016-08-29T09:44:38.809Z,1088.96
2016-08-29T09:45:38.806Z,1085.89
2016-08-29T09:46:38.800Z,1082.44
2016-08-29T09:47:38.813Z,1078.71
2016-08-29T09:48:38.808Z,1074.67
2016-08-29T09:49:38.813Z,1070.38
2016-08-29T09:50:38.807Z,1066.6
2016-08-29T09:51:38.813Z,1062.19
2016-08-29T09:52:38.806Z,1058.38
2016-08-29T09:53:38.808Z,1054.27
2016-08-29T09:54:38.810Z,1051.36
2016-08-29T09:55:38.809Z,1047.71
2016-08-29T09:56:38.808Z,1043.58
2016-08-29T09:57:39.481Z,1039.37
2016-08-29T09:58:38.809Z,1037
2016-08-29T09:59:38.824Z,1034.19
2016-08-29T10:00:39.460Z,1031.56
2016-08-29T10:01:38.816Z,1029.42
2016-08-29T10:02:38.811Z,1028.63
2016-08-29T10:03:38.895Z,1028.94
2016-08-29T10:04:38.825Z,1029.13
2016-08-29T10:05:38.819Z,1028.96
2016-08-29T10:06:38.818Z,1028.59
2016-08-29T10:07:38.826Z,1027.87
2016-08-29T10:08:38.819Z,1027.69
2016-08-29T10:09:38.824Z,1027.4
2016-08-29T10:10:38.829Z,1026.61
2016-08-29T10:11:38.834Z,1027.01
2016-08-29T10:12:38.857Z,1027.75
2016-08-29T10:13:38.837Z,1028.33
2016-08-29T10:14:38.860Z,1028.14
2016-08-29T10:15:38.847Z,1027.1
2016-08-29T10:16:38.832Z,1025.32
2016-08-29T10:17:38.845Z,1023.16
2016-08-29T10:18:38.840Z,1020.43
2016-08-29T10:19:38.840Z,1017.19
2016-08-29T10:20:38.835Z,1014.9
2016-08-29T10:21:38.839Z,1012.18
2016-08-29T10:22:38.871Z,1009.19
2016-08-29T10:23:38.847Z,1006.21
2016-08-29T10:24:38.846Z,1003.94
2016-08-29T10:25:38.841Z,1001.41
2016-08-29T10:26:38.840Z,1000.34
2016-08-29T10:27:38.904Z,998.22
2016-08-29T10:28:38.836Z,995.14
2016-08-29T10:29:38.855Z,989.54
2016-08-29T10:30:38.842Z,985.08
2016-08-29T10:31:38.845Z,979.88
2016-08-29T10:32:38.866Z,975.74
2016-08-29T10:33:38.907Z,974.31
2016-08-29T10:34:38.856Z,973.5
2016-08-29T10:35:38.858Z,971.54
2016-08-29T10:36:38.848Z,968.68
2016-08-29T10:37:38.857Z,965.9
2016-08-29T10:38:38.847Z,963.02
2016-08-29T10:39:38.854Z,959.86
2016-08-29T10:40:38.864Z,958.12
2016-08-29T10:41:38.867Z,955.96
2016-08-29T10:42:38.870Z,952.73
2016-08-29T10:43:38.859Z,949.29
2016-08-29T10:44:38.858Z,946.55
2016-08-29T10:45:38.871Z,945.36
2016-08-29T10:46:38.862Z,946.5
2016-08-29T10:47:38.869Z,949.97
2016-08-29T10:48:38.869Z,954.04
2016-08-29T10:49:38.949Z,959.85
2016-08-29T10:50:38.881Z,964.29
2016-08-29T10:51:38.882Z,968.69
2016-08-29T10:52:38.871Z,973.01
2016-08-29T10:53:38.873Z,976.86
2016-08-29T10:54:38.872Z,981.54
2016-08-29T10:55:38.875Z,985.3
2016-08-29T10:56:38.882Z,989.39
2016-08-29T10:57:38.875Z,993.44
2016-08-29T10:58:38.894Z,998.24
2016-08-29T10:59:38.872Z,1000.46
2016-08-29T11:00:38.893Z,1004.19
2016-08-29T11:01:38.898Z,1009.24
2016-08-29T11:02:38.889Z,1014.77
2016-08-29T11:03:38.888Z,1021.4
2016-08-29T11:04:38.888Z,1026.92
2016-08-29T11:05:38.885Z,1031.32
2016-08-29T11:06:38.888Z,1033.6
2016-08-29T11:07:38.891Z,1035.31
2016-08-29T11:08:38.908Z,1036.15
2016-08-29T11:09:38.890Z,1035.61
2016-08-29T11:10:38.895Z,1034.47
2016-08-29T11:11:38.910Z,1031.59
2016-08-29T11:12:38.901Z,1026.99
2016-08-29T11:13:38.887Z,1020.55
2016-08-29T11:14:38.899Z,1012.88
2016-08-29T11:15:38.904Z,1004.36
2016-08-29T11:16:38.908Z,996.56
2016-08-29T11:17:38.919Z,988.41
2016-08-29T11:18:38.936Z,983.61
2016-08-29T11:19:38.904Z,981.87
2016-08-29T11:20:38.962Z,982.22
2016-08-29T11:21:39.248Z,982
2016-08-29T11:22:39.572Z,981.55
2016-08-29T11:23:38.911Z,979.82
2016-08-29T11:24:38.910Z,978.29
2016-08-29T11:25:38.902Z,976.09
2016-08-29T11:26:38.924Z,973.66
2016-08-29T11:27:39.173Z,968.95
2016-08-29T11:28:38.932Z,965
2016-08-29T11:29:38.924Z,959.98
2016-08-29T11:30:38.917Z,955.27
2016-08-29T11:31:38.926Z,949.3
2016-08-29T11:32:38.921Z,944.22
2016-08-29T11:33:38.957Z,938.82
2016-08-29T11:34:38.921Z,933.54
2016-08-29T11:35:38.934Z,929.29
2016-08-29T11:36:39.016Z,925.17
2016-08-29T11:37:38.921Z,923.38
2016-08-29T11:38:38.925Z,919.35
2016-08-29T11:39:38.934Z,915.39
2016-08-29T11:40:38.951Z,912.37
2016-08-29T11:41:38.924Z,908.86
2016-08-29T11:42:38.941Z,905.29
2016-08-29T11:43:38.927Z,902.36
2016-08-29T11:44:38.922Z,900.93
2016-08-29T11:45:38.939Z,898.71
2016-08-29T11:46:38.949Z,897.99
2016-08-29T11:47:38.943Z,898.17
2016-08-29T11:48:38.941Z,896.41
2016-08-29T11:49:38.935Z,893.32
2016-08-29T11:50:38.930Z,892.65
2016-08-29T11:51:38.936Z,892.94
2016-08-29T11:52:38.943Z,894.54
2016-08-29T11:53:38.945Z,896.02
2016-08-29T11:54:38.947Z,900.7
2016-08-29T11:55:38.934Z,905.7
2016-08-29T11:56:38.955Z,911.68
2016-08-29T11:57:38.939Z,918.8
2016-08-29T11:58:38.939Z,928.11
2016-08-29T11:59:38.946Z,934.08
2016-08-29T12:00:38.943Z,937.95
2016-08-29T12:01:38.936Z,945.32
2016-08-29T12:02:38.942Z,951.69
2016-08-29T12:03:38.951Z,956.18
2016-08-29T12:04:38.941Z,958.46
2016-08-29T12:05:38.946Z,960.76
2016-08-29T12:06:38.966Z,964.1
2016-08-29T12:07:38.944Z,967.92
2016-08-29T12:08:38.952Z,969.88
2016-08-29T12:09:38.943Z,972.18
2016-08-29T12:10:38.960Z,972.52
2016-08-29T12:11:38.957Z,971.3